Bookmark and Share
Track history (hours):
 

Burgtor

Last reported at 2014-Apr-18 12:09 UTC. Time now 2014-Apr-18 18:18 UTC.
Position N 53°29' E 004°44'.

Length 87 m; draft 5.1 m.

Type: Cargo ship. MMSI: 304665000.

NotesDate/timePositionNaut miles runAvg speedWind from/ knotsBaromVisibWave heightAir tempDewpointWater temp
2014-Apr-18 12:09N 53°29' E 004°44'5 8.9
2014-Apr-18 11:33N 53°31' E 004°52'8 8.0
2014-Apr-18 10:33N 53°34' E 005°04'7 7.1
2014-Apr-18 09:33N 53°36' E 005°16'6 6.3
2014-Apr-18 08:33N 53°38' E 005°26'6 6.2
2014-Apr-18 07:33N 53°40' E 005°36'6 6.4
2014-Apr-18 06:33N 53°42' E 005°46'7 6.9
2014-Apr-18 05:33N 53°44' E 005°57'45 7.4
2014-Apr-17 23:33N 53°56' E 007°10'7 6.6
2014-Apr-17 22:33N 53°58' E 007°20'6 6.3
2014-Apr-17 21:33N 53°60' E 007°31'7 6.6
2014-Apr-17 20:33N 54°01' E 007°42'7 7.3
2014-Apr-17 19:33N 54°01' E 007°54'8 7.9
2014-Apr-17 18:33N 54°01' E 008°08'10 9.7
2014-Apr-17 17:33N 53°60' E 008°24'1111.4
2014-Apr-17 16:33N 53°55' E 008°41'9 9.5
2014-Apr-17 15:33N 53°51' E 008°56'8 7.9
2014-Apr-17 14:33N 53°54' E 009°09'4 4.0
2014-Apr-17 13:33N 53°56' E 009°13'8 8.2
2014-Apr-17 12:33N 54°04' E 009°19'8 7.5
2014-Apr-17 11:30N 54°10' E 009°27'64 7.2
2014-Apr-17 02:33N 54°36' E 011°07'1010.1
2014-Apr-17 01:33N 54°33' E 011°23'1110.9
2014-Apr-17 00:33N 54°28' E 011°41'1111.0
2014-Apr-16 23:33N 54°27' E 011°59'9 9.3
2014-Apr-16 22:33N 54°32' E 012°12'1110.0
2014-Apr-16 21:30N 54°40' E 012°24'1010.6
2014-Apr-16 20:33N 54°46' E 012°39'1110.6
2014-Apr-16 19:33N 54°47' E 012°57'1110.8
2014-Apr-16 18:33N 54°46' E 013°16'10 9.5
2014-Apr-16 17:33N 54°46' E 013°32'9 8.8
2014-Apr-16 16:32N 54°44' E 013°47'9 9.1
2014-Apr-16 15:33N 54°42' E 014°02'10 9.5
2014-Apr-16 14:33N 54°39' E 014°18'130 9.3
2014-Apr-16 00:33N 54°56' E 018°01'9 8.6
2014-Apr-15 23:33N 54°56' E 018°16'8 8.5
2014-Apr-15 22:33N 54°56' E 018°30'7 7.4
2014-Apr-15 21:33N 54°53' E 018°43'7 7.2
2014-Apr-15 20:33N 54°48' E 018°52'6 6.4
2014-Apr-15 19:33N 54°43' E 018°58'8 7.6
2014-Apr-15 18:33N 54°36' E 018°54'8 7.9
2014-Apr-15 17:33N 54°32' E 018°42'5 4.6
2014-Apr-15 16:34N 54°32' E 018°34'1 1.1
2014-Apr-15 15:32N 54°32' E 018°32'0 0.0
2014-Apr-15 14:32N 54°32' E 018°32'0 0.0
2014-Apr-15 12:33N 54°32' E 018°32'0 0.0
2014-Apr-15 11:33N 54°32' E 018°32'0 0.0
2014-Apr-15 10:33N 54°32' E 018°32'0 0.0
2014-Apr-15 09:32N 54°32' E 018°32'0 0.0
2014-Apr-15 08:32N 54°32' E 018°32'0 0.0
2014-Apr-15 07:32N 54°32' E 018°32'0 0.0
2014-Apr-15 06:32N 54°32' E 018°32'0 0.0
2014-Apr-15 05:32N 54°32' E 018°32'0 0.0
2014-Apr-15 03:32N 54°32' E 018°32'0 0.0
2014-Apr-15 02:32N 54°32' E 018°32'0 0.0
2014-Apr-15 01:32N 54°32' E 018°32'0 0.0
2014-Apr-15 00:32N 54°32' E 018°32'0 0.0
2014-Apr-14 23:32N 54°32' E 018°32'0 0.0
2014-Apr-14 22:32N 54°32' E 018°32'0 0.0
2014-Apr-14 21:32N 54°32' E 018°32'0 0.0
2014-Apr-14 20:32N 54°32' E 018°32'0 0.0
2014-Apr-14 19:32N 54°32' E 018°32'0 0.0
2014-Apr-14 18:32N 54°32' E 018°32'0 0.0
2014-Apr-14 17:32N 54°32' E 018°32'0 0.0
2014-Apr-14 16:32N 54°32' E 018°32'0 0.0
2014-Apr-14 15:32N 54°32' E 018°32'0 0.0
2014-Apr-14 14:32N 54°32' E 018°32'0 0.0
2014-Apr-14 13:32N 54°32' E 018°32'0 0.0
2014-Apr-14 11:32N 54°32' E 018°32'0 0.0
2014-Apr-14 10:32N 54°32' E 018°32'0 0.0
2014-Apr-14 09:31N 54°32' E 018°32'0 0.0
2014-Apr-14 08:31N 54°32' E 018°32'0 0.0
2014-Apr-14 07:31N 54°32' E 018°32'0 0.0
2014-Apr-14 06:31N 54°32' E 018°32'0 0.0
2014-Apr-14 05:31N 54°32' E 018°32'0 0.0
2014-Apr-13 22:32N 54°32' E 018°32'0 0.0
2014-Apr-13 21:32N 54°32' E 018°32'0 0.0
2014-Apr-13 20:32N 54°32' E 018°32'0 0.0
2014-Apr-13 19:32N 54°32' E 018°32'0 0.0
2014-Apr-13 18:32N 54°32' E 018°32'0 0.0
2014-Apr-13 17:32N 54°32' E 018°32'0 0.0
2014-Apr-13 16:32N 54°32' E 018°32'0 0.0
2014-Apr-13 15:32N 54°32' E 018°32'0 0.0
2014-Apr-13 14:32N 54°32' E 018°32'0 0.0
2014-Apr-13 13:32N 54°32' E 018°32'0 0.0
2014-Apr-13 12:32N 54°32' E 018°32'0 0.0
2014-Apr-13 11:31N 54°32' E 018°32'0 0.0
2014-Apr-13 10:28N 54°32' E 018°32'0 0.0
2014-Apr-13 09:31N 54°32' E 018°32'0 0.0
2014-Apr-13 08:31N 54°32' E 018°32'0 0.0
2014-Apr-13 07:31N 54°32' E 018°32'0 0.0
2014-Apr-13 06:31N 54°32' E 018°32'0 0.0
2014-Apr-13 05:31N 54°32' E 018°32'0 0.0
2014-Apr-13 04:31N 54°32' E 018°32'0 0.0
2014-Apr-13 03:31N 54°32' E 018°32'0 0.0
2014-Apr-13 02:34N 54°32' E 018°32'0 0.0
2014-Apr-13 01:33N 54°32' E 018°32'0 0.0
2014-Apr-13 00:33N 54°32' E 018°32'0 0.0
2014-Apr-12 23:34N 54°32' E 018°32'0 0.0
2014-Apr-12 22:33N 54°32' E 018°32'0 0.0
2014-Apr-12 21:34N 54°32' E 018°32'0 0.0
2014-Apr-12 20:33N 54°32' E 018°32'0 0.0
2014-Apr-12 19:33N 54°32' E 018°32'0 0.0
2014-Apr-12 18:33N 54°32' E 018°32'0 0.0
2014-Apr-12 17:33N 54°32' E 018°32'0 0.0
2014-Apr-12 16:33N 54°32' E 018°32'0 0.0
2014-Apr-12 15:33N 54°32' E 018°32'0 0.0
2014-Apr-12 14:33N 54°32' E 018°32'0 0.0
2014-Apr-12 13:33N 54°32' E 018°32'0 0.0
2014-Apr-12 12:33N 54°32' E 018°32'0 0.0
2014-Apr-12 11:33N 54°32' E 018°32'0 0.0
2014-Apr-12 10:33N 54°32' E 018°32'0 0.0
2014-Apr-12 09:33N 54°32' E 018°32'0 0.0
2014-Apr-12 08:33N 54°32' E 018°32'0 0.0
2014-Apr-12 07:33N 54°32' E 018°32'0 0.0
2014-Apr-12 06:33N 54°32' E 018°32'0 0.0
2014-Apr-12 05:33N 54°32' E 018°32'0 0.0
2014-Apr-12 04:33N 54°32' E 018°32'0 0.0
2014-Apr-12 03:33N 54°32' E 018°32'0 0.0
2014-Apr-12 02:33N 54°32' E 018°32'0 0.0
2014-Apr-12 01:33N 54°32' E 018°32'0 0.0
2014-Apr-12 00:33N 54°32' E 018°32'0 0.0
2014-Apr-11 23:33N 54°32' E 018°32'0 0.0
2014-Apr-11 22:33N 54°32' E 018°32'0 0.0
2014-Apr-11 21:33N 54°32' E 018°32'0 0.0
2014-Apr-11 20:33N 54°32' E 018°32'0 0.0
2014-Apr-11 19:33N 54°32' E 018°32'0 0.0
2014-Apr-11 18:33N 54°32' E 018°32'0 0.0
2014-Apr-11 17:33N 54°32' E 018°32'0 0.0
2014-Apr-11 16:33N 54°32' E 018°32'0 0.0
2014-Apr-11 15:33N 54°32' E 018°32'0 0.0
2014-Apr-11 14:32N 54°32' E 018°32'0 0.0
2014-Apr-11 13:33N 54°32' E 018°32'0 0.0
2014-Apr-11 12:30N 54°32' E 018°32'0 0.0
2014-Apr-11 11:32N 54°32' E 018°32'0 0.0
2014-Apr-11 10:33N 54°32' E 018°32'0 0.0
2014-Apr-11 09:33N 54°32' E 018°32'0 0.0
2014-Apr-11 08:32N 54°32' E 018°32'0 0.0
2014-Apr-11 07:32N 54°32' E 018°32'0 0.0
2014-Apr-11 06:32N 54°32' E 018°32'0 0.0
2014-Apr-11 05:32N 54°32' E 018°32'0 0.0
2014-Apr-11 04:32N 54°32' E 018°32'0 0.0
2014-Apr-11 03:32N 54°32' E 018°32'0 0.0
2014-Apr-11 02:32N 54°32' E 018°32'0 0.0
2014-Apr-11 01:32N 54°32' E 018°32'0 0.0
2014-Apr-11 00:32N 54°32' E 018°32'0 0.0
2014-Apr-10 23:32N 54°32' E 018°32'0 0.0
2014-Apr-10 22:32N 54°32' E 018°32'0 0.0
2014-Apr-10 21:32N 54°32' E 018°32'0 0.0
2014-Apr-10 20:32N 54°32' E 018°32'0 0.0
2014-Apr-10 19:32N 54°32' E 018°32'0 0.0
2014-Apr-10 18:32N 54°32' E 018°32'0 0.0
2014-Apr-10 17:32N 54°32' E 018°32'0 0.0
2014-Apr-10 16:32N 54°32' E 018°32'0 0.0
2014-Apr-10 15:32N 54°32' E 018°32'0 0.0
2014-Apr-10 14:32N 54°32' E 018°32'0 0.0
2014-Apr-10 13:32N 54°32' E 018°32'0 0.0
2014-Apr-10 12:32N 54°32' E 018°32'0 0.0
2014-Apr-10 11:32N 54°32' E 018°32'0 0.0
2014-Apr-10 10:32N 54°32' E 018°32'0 0.0
2014-Apr-10 09:32N 54°32' E 018°32'0 0.0
2014-Apr-10 08:32N 54°32' E 018°32'0 0.0
2014-Apr-10 07:31N 54°32' E 018°32'0 0.0
2014-Apr-10 06:32N 54°32' E 018°32'0 0.0
2014-Apr-10 05:31N 54°32' E 018°32'0 0.0
2014-Apr-10 04:31N 54°32' E 018°32'0 0.0
2014-Apr-10 03:32N 54°32' E 018°32'0 0.0
2014-Apr-10 02:31N 54°32' E 018°32'0 0.0
2014-Apr-10 01:31N 54°32' E 018°32'0 0.0
2014-Apr-10 00:31N 54°32' E 018°32'0 0.0
2014-Apr-09 23:31N 54°32' E 018°32'0 0.0
2014-Apr-09 22:31N 54°32' E 018°32'0 0.0
2014-Apr-09 21:31N 54°32' E 018°32'0 0.0
2014-Apr-09 20:31N 54°32' E 018°32'0 0.0
2014-Apr-09 19:31N 54°32' E 018°32'0 0.0
2014-Apr-09 18:31N 54°32' E 018°32'0 0.0
2014-Apr-09 17:31N 54°32' E 018°32'0 0.0
2014-Apr-09 16:31N 54°32' E 018°32'0 0.0
2014-Apr-09 15:31N 54°32' E 018°32'0 0.0
2014-Apr-09 14:31N 54°32' E 018°32'0 0.0
2014-Apr-09 13:31N 54°32' E 018°32'0 0.0
2014-Apr-09 12:31N 54°32' E 018°32'0 0.0
2014-Apr-09 11:31N 54°32' E 018°32'0 0.0
2014-Apr-09 10:31N 54°32' E 018°32'0 0.0
2014-Apr-09 09:31N 54°32' E 018°32'0 0.0
2014-Apr-09 08:31N 54°32' E 018°32'0 0.0
2014-Apr-09 07:28N 54°32' E 018°32'0 0.0
2014-Apr-09 06:31N 54°32' E 018°32'0 0.0
2014-Apr-09 05:31N 54°32' E 018°32'0 0.0
2014-Apr-09 04:31N 54°32' E 018°32'0 0.0
2014-Apr-09 03:31N 54°32' E 018°32'0 0.0
2014-Apr-09 02:31N 54°32' E 018°32'0 0.0
2014-Apr-09 01:31N 54°32' E 018°32'0 0.0
2014-Apr-09 00:31N 54°32' E 018°32'0 0.0
2014-Apr-08 23:31N 54°32' E 018°32'0 0.0
2014-Apr-08 22:31N 54°32' E 018°32'0 0.0
2014-Apr-08 21:34N 54°32' E 018°32'0 0.0
2014-Apr-08 20:33N 54°32' E 018°32'0 0.0
2014-Apr-08 19:33N 54°32' E 018°32'0 0.0
2014-Apr-08 18:33N 54°32' E 018°32'0 0.0
2014-Apr-08 17:33N 54°32' E 018°32'0 0.0
2014-Apr-08 16:33N 54°32' E 018°32'0 0.0
2014-Apr-08 15:33N 54°32' E 018°32'0 0.0
2014-Apr-08 14:33N 54°32' E 018°32'0 0.0
2014-Apr-08 13:33N 54°32' E 018°32'0 0.0
2014-Apr-08 12:30N 54°32' E 018°32'  

Dump ship's entire track history

sailing weather and tide predictions

Burgtor — V2OR7 — position and weather